sensor_id;sensor_type;location;lat;lon;timestamp;P1;durP1;ratioP1;P2;durP2;ratioP2
19167;SDS011;9716;53.114;18.040;2023-05-29T00:02:03;8.18;;;2.67;;
19167;SDS011;9716;53.114;18.040;2023-05-29T00:04:32;6.13;;;2.83;;
19167;SDS011;9716;53.114;18.040;2023-05-29T00:07:00;8.93;;;1.75;;
19167;SDS011;9716;53.114;18.040;2023-05-29T00:09:31;8.43;;;2.67;;
19167;SDS011;9716;53.114;18.040;2023-05-29T00:12:00;5.50;;;2.28;;
19167;SDS011;9716;53.114;18.040;2023-05-29T00:14:29;4.70;;;2.05;;
19167;SDS011;9716;53.114;18.040;2023-05-29T00:16:57;3.67;;;2.30;;
19167;SDS011;9716;53.114;18.040;2023-05-29T00:19:26;6.03;;;2.22;;
19167;SDS011;9716;53.114;18.040;2023-05-29T00:21:55;4.60;;;2.40;;
19167;SDS011;9716;53.114;18.040;2023-05-29T00:24:23;6.38;;;2.55;;
19167;SDS011;9716;53.114;18.040;2023-05-29T00:26:52;3.75;;;2.15;;
19167;SDS011;9716;53.114;18.040;2023-05-29T00:29:22;5.05;;;2.17;;
19167;SDS011;9716;53.114;18.040;2023-05-29T00:31:51;3.45;;;2.03;;
19167;SDS011;9716;53.114;18.040;2023-05-29T00:34:21;4.20;;;1.80;;
19167;SDS011;9716;53.114;18.040;2023-05-29T00:36:50;10.25;;;2.35;;
19167;SDS011;9716;53.114;18.040;2023-05-29T00:39:20;6.40;;;2.10;;
19167;SDS011;9716;53.114;18.040;2023-05-29T00:41:48;4.38;;;2.13;;
19167;SDS011;9716;53.114;18.040;2023-05-29T00:44:18;5.10;;;2.33;;
19167;SDS011;9716;53.114;18.040;2023-05-29T00:46:47;2.55;;;1.48;;
19167;SDS011;9716;53.114;18.040;2023-05-29T00:49:19;3.63;;;1.90;;
19167;SDS011;9716;53.114;18.040;2023-05-29T00:51:49;3.67;;;2.03;;
19167;SDS011;9716;53.114;18.040;2023-05-29T00:54:20;3.70;;;2.20;;
19167;SDS011;9716;53.114;18.040;2023-05-29T00:56:51;3.60;;;2.30;;
19167;SDS011;9716;53.114;18.040;2023-05-29T00:59:20;3.20;;;1.80;;
19167;SDS011;9716;53.114;18.040;2023-05-29T01:01:51;7.82;;;2.47;;
19167;SDS011;9716;53.114;18.040;2023-05-29T01:04:21;7.97;;;2.05;;
19167;SDS011;9716;53.114;18.040;2023-05-29T01:06:50;6.50;;;2.10;;
19167;SDS011;9716;53.114;18.040;2023-05-29T01:09:19;6.28;;;2.28;;
19167;SDS011;9716;53.114;18.040;2023-05-29T01:11:50;5.15;;;2.55;;
19167;SDS011;9716;53.114;18.040;2023-05-29T01:14:33;3.97;;;2.22;;
19167;SDS011;9716;53.114;18.040;2023-05-29T01:17:11;3.92;;;1.98;;
19167;SDS011;9716;53.114;18.040;2023-05-29T01:19:56;6.82;;;2.28;;
19167;SDS011;9716;53.114;18.040;2023-05-29T01:22:35;4.05;;;1.92;;
19167;SDS011;9716;53.114;18.040;2023-05-29T01:25:17;7.75;;;2.10;;
19167;SDS011;9716;53.114;18.040;2023-05-29T01:27:50;6.07;;;1.90;;
19167;SDS011;9716;53.114;18.040;2023-05-29T01:30:20;9.38;;;2.15;;
19167;SDS011;9716;53.114;18.040;2023-05-29T01:32:51;4.88;;;2.03;;
19167;SDS011;9716;53.114;18.040;2023-05-29T01:35:20;6.22;;;2.13;;
19167;SDS011;9716;53.114;18.040;2023-05-29T01:37:48;2.70;;;1.65;;
19167;SDS011;9716;53.114;18.040;2023-05-29T01:40:17;3.03;;;1.98;;
19167;SDS011;9716;53.114;18.040;2023-05-29T01:42:45;5.97;;;2.70;;
19167;SDS011;9716;53.114;18.040;2023-05-29T01:45:16;6.05;;;1.83;;
19167;SDS011;9716;53.114;18.040;2023-05-29T01:47:45;3.35;;;2.20;;
19167;SDS011;9716;53.114;18.040;2023-05-29T01:50:15;5.53;;;2.35;;
19167;SDS011;9716;53.114;18.040;2023-05-29T01:52:46;5.07;;;2.10;;
19167;SDS011;9716;53.114;18.040;2023-05-29T01:55:14;4.80;;;1.77;;
19167;SDS011;9716;53.114;18.040;2023-05-29T01:57:43;3.97;;;2.08;;
19167;SDS011;9716;53.114;18.040;2023-05-29T02:00:12;4.40;;;1.80;;
19167;SDS011;9716;53.114;18.040;2023-05-29T02:02:45;3.28;;;1.88;;
19167;SDS011;9716;53.114;18.040;2023-05-29T02:05:14;5.15;;;1.65;;
19167;SDS011;9716;53.114;18.040;2023-05-29T02:07:43;3.08;;;1.90;;
19167;SDS011;9716;53.114;18.040;2023-05-29T02:10:13;4.28;;;1.83;;
19167;SDS011;9716;53.114;18.040;2023-05-29T02:12:42;3.47;;;1.90;;
19167;SDS011;9716;53.114;18.040;2023-05-29T02:15:10;3.47;;;1.92;;
19167;SDS011;9716;53.114;18.040;2023-05-29T02:17:39;4.68;;;1.70;;
19167;SDS011;9716;53.114;18.040;2023-05-29T02:20:10;6.85;;;2.13;;
19167;SDS011;9716;53.114;18.040;2023-05-29T02:22:38;2.58;;;1.60;;
19167;SDS011;9716;53.114;18.040;2023-05-29T02:25:07;3.63;;;2.28;;
19167;SDS011;9716;53.114;18.040;2023-05-29T02:27:36;4.90;;;1.67;;
19167;SDS011;9716;53.114;18.040;2023-05-29T02:30:05;3.42;;;2.08;;
19167;SDS011;9716;53.114;18.040;2023-05-29T02:32:35;6.20;;;2.30;;
19167;SDS011;9716;53.114;18.040;2023-05-29T02:35:04;6.28;;;2.22;;
19167;SDS011;9716;53.114;18.040;2023-05-29T02:37:33;5.93;;;2.00;;
19167;SDS011;9716;53.114;18.040;2023-05-29T02:40:02;2.80;;;1.92;;
19167;SDS011;9716;53.114;18.040;2023-05-29T02:42:33;2.08;;;1.50;;
19167;SDS011;9716;53.114;18.040;2023-05-29T02:45:01;6.40;;;2.22;;
19167;SDS011;9716;53.114;18.040;2023-05-29T02:47:30;5.70;;;2.25;;
19167;SDS011;9716;53.114;18.040;2023-05-29T02:49:59;5.38;;;2.20;;
19167;SDS011;9716;53.114;18.040;2023-05-29T02:52:27;4.10;;;2.20;;
19167;SDS011;9716;53.114;18.040;2023-05-29T02:54:58;4.50;;;2.22;;
19167;SDS011;9716;53.114;18.040;2023-05-29T02:57:27;4.93;;;1.98;;
19167;SDS011;9716;53.114;18.040;2023-05-29T02:59:55;4.53;;;2.20;;
19167;SDS011;9716;53.114;18.040;2023-05-29T03:02:24;4.78;;;2.25;;
19167;SDS011;9716;53.114;18.040;2023-05-29T03:04:53;6.40;;;2.42;;
19167;SDS011;9716;53.114;18.040;2023-05-29T03:07:21;3.53;;;2.10;;
19167;SDS011;9716;53.114;18.040;2023-05-29T03:09:50;5.18;;;2.22;;
19167;SDS011;9716;53.114;18.040;2023-05-29T03:12:20;7.50;;;2.30;;
19167;SDS011;9716;53.114;18.040;2023-05-29T03:14:49;3.72;;;2.20;;
19167;SDS011;9716;53.114;18.040;2023-05-29T03:17:17;4.65;;;2.08;;
19167;SDS011;9716;53.114;18.040;2023-05-29T03:19:48;4.43;;;2.30;;
19167;SDS011;9716;53.114;18.040;2023-05-29T03:22:17;3.10;;;2.08;;
19167;SDS011;9716;53.114;18.040;2023-05-29T03:24:45;4.47;;;2.03;;
19167;SDS011;9716;53.114;18.040;2023-05-29T03:27:14;6.85;;;2.60;;
19167;SDS011;9716;53.114;18.040;2023-05-29T03:29:45;4.50;;;2.17;;
19167;SDS011;9716;53.114;18.040;2023-05-29T03:32:13;7.10;;;2.40;;
19167;SDS011;9716;53.114;18.040;2023-05-29T03:34:42;4.70;;;2.20;;
19167;SDS011;9716;53.114;18.040;2023-05-29T03:37:10;7.03;;;2.13;;
19167;SDS011;9716;53.114;18.040;2023-05-29T03:39:39;5.05;;;2.47;;
19167;SDS011;9716;53.114;18.040;2023-05-29T03:42:07;3.22;;;1.90;;
19167;SDS011;9716;53.114;18.040;2023-05-29T03:44:36;4.05;;;2.13;;
19167;SDS011;9716;53.114;18.040;2023-05-29T03:47:06;3.40;;;2.28;;
19167;SDS011;9716;53.114;18.040;2023-05-29T03:49:36;6.38;;;2.22;;
19167;SDS011;9716;53.114;18.040;2023-05-29T03:52:05;2.95;;;1.65;;
19167;SDS011;9716;53.114;18.040;2023-05-29T03:54:33;3.97;;;2.28;;
19167;SDS011;9716;53.114;18.040;2023-05-29T03:57:02;3.33;;;2.28;;
19167;SDS011;9716;53.114;18.040;2023-05-29T03:59:30;3.53;;;2.33;;
19167;SDS011;9716;53.114;18.040;2023-05-29T04:01:59;5.00;;;2.55;;
19167;SDS011;9716;53.114;18.040;2023-05-29T04:04:29;3.65;;;2.47;;
19167;SDS011;9716;53.114;18.040;2023-05-29T04:06:58;3.60;;;2.10;;
19167;SDS011;9716;53.114;18.040;2023-05-29T04:09:26;6.18;;;2.03;;
19167;SDS011;9716;53.114;18.040;2023-05-29T04:11:55;8.65;;;2.20;;
19167;SDS011;9716;53.114;18.040;2023-05-29T04:14:24;7.43;;;2.45;;
19167;SDS011;9716;53.114;18.040;2023-05-29T04:16:52;2.88;;;1.83;;
19167;SDS011;9716;53.114;18.040;2023-05-29T04:19:23;5.95;;;2.58;;
19167;SDS011;9716;53.114;18.040;2023-05-29T04:21:52;4.18;;;2.47;;
19167;SDS011;9716;53.114;18.040;2023-05-29T04:24:21;4.13;;;2.10;;
19167;SDS011;9716;53.114;18.040;2023-05-29T04:26:51;6.22;;;2.92;;
19167;SDS011;9716;53.114;18.040;2023-05-29T04:29:19;5.40;;;3.40;;
19167;SDS011;9716;53.114;18.040;2023-05-29T04:31:48;8.65;;;4.20;;
19167;SDS011;9716;53.114;18.040;2023-05-29T04:34:18;7.50;;;4.90;;
19167;SDS011;9716;53.114;18.040;2023-05-29T04:36:46;9.38;;;4.15;;
19167;SDS011;9716;53.114;18.040;2023-05-29T04:39:17;9.80;;;4.22;;
19167;SDS011;9716;53.114;18.040;2023-05-29T04:41:51;8.23;;;4.95;;
19167;SDS011;9716;53.114;18.040;2023-05-29T04:44:20;4.95;;;3.45;;
19167;SDS011;9716;53.114;18.040;2023-05-29T04:46:49;9.48;;;3.30;;
19167;SDS011;9716;53.114;18.040;2023-05-29T04:49:19;6.18;;;3.85;;
19167;SDS011;9716;53.114;18.040;2023-05-29T04:51:49;7.88;;;2.97;;
19167;SDS011;9716;53.114;18.040;2023-05-29T04:54:21;8.38;;;3.63;;
19167;SDS011;9716;53.114;18.040;2023-05-29T04:56:50;11.55;;;4.18;;
19167;SDS011;9716;53.114;18.040;2023-05-29T04:59:19;6.82;;;2.88;;
19167;SDS011;9716;53.114;18.040;2023-05-29T05:01:47;5.68;;;3.00;;
19167;SDS011;9716;53.114;18.040;2023-05-29T05:04:17;7.32;;;2.97;;
19167;SDS011;9716;53.114;18.040;2023-05-29T05:06:45;6.70;;;2.88;;
19167;SDS011;9716;53.114;18.040;2023-05-29T05:09:14;5.80;;;3.10;;
19167;SDS011;9716;53.114;18.040;2023-05-29T05:11:45;6.97;;;2.72;;
19167;SDS011;9716;53.114;18.040;2023-05-29T05:14:14;5.50;;;2.70;;
19167;SDS011;9716;53.114;18.040;2023-05-29T05:16:42;9.73;;;2.80;;
19167;SDS011;9716;53.114;18.040;2023-05-29T05:19:11;5.05;;;2.58;;
19167;SDS011;9716;53.114;18.040;2023-05-29T05:21:39;6.30;;;2.47;;
19167;SDS011;9716;53.114;18.040;2023-05-29T05:24:07;11.48;;;2.88;;
19167;SDS011;9716;53.114;18.040;2023-05-29T05:26:36;7.30;;;2.00;;
19167;SDS011;9716;53.114;18.040;2023-05-29T05:29:06;6.93;;;2.75;;
19167;SDS011;9716;53.114;18.040;2023-05-29T05:31:34;4.63;;;2.10;;
19167;SDS011;9716;53.114;18.040;2023-05-29T05:34:03;5.90;;;1.70;;
19167;SDS011;9716;53.114;18.040;2023-05-29T05:36:32;4.60;;;2.42;;
19167;SDS011;9716;53.114;18.040;2023-05-29T05:39:01;2.70;;;1.88;;
19167;SDS011;9716;53.114;18.040;2023-05-29T05:41:30;4.50;;;2.10;;
19167;SDS011;9716;53.114;18.040;2023-05-29T05:43:59;7.95;;;2.22;;
19167;SDS011;9716;53.114;18.040;2023-05-29T05:46:29;5.13;;;1.90;;
19167;SDS011;9716;53.114;18.040;2023-05-29T05:48:58;6.60;;;2.15;;
19167;SDS011;9716;53.114;18.040;2023-05-29T05:51:27;5.20;;;2.05;;
19167;SDS011;9716;53.114;18.040;2023-05-29T05:53:56;4.60;;;1.90;;
19167;SDS011;9716;53.114;18.040;2023-05-29T05:56:24;3.95;;;1.60;;
19167;SDS011;9716;53.114;18.040;2023-05-29T05:58:53;11.45;;;2.10;;
19167;SDS011;9716;53.114;18.040;2023-05-29T06:01:22;4.43;;;1.98;;
19167;SDS011;9716;53.114;18.040;2023-05-29T06:03:52;4.45;;;2.15;;
19167;SDS011;9716;53.114;18.040;2023-05-29T06:06:21;3.65;;;1.58;;
19167;SDS011;9716;53.114;18.040;2023-05-29T06:08:50;6.38;;;1.83;;
19167;SDS011;9716;53.114;18.040;2023-05-29T06:11:18;10.95;;;2.30;;
19167;SDS011;9716;53.114;18.040;2023-05-29T06:13:47;2.63;;;1.33;;
19167;SDS011;9716;53.114;18.040;2023-05-29T06:16:15;8.23;;;2.03;;
19167;SDS011;9716;53.114;18.040;2023-05-29T06:18:44;10.07;;;2.35;;
19167;SDS011;9716;53.114;18.040;2023-05-29T06:21:14;2.80;;;1.83;;
19167;SDS011;9716;53.114;18.040;2023-05-29T06:23:43;7.82;;;2.40;;
19167;SDS011;9716;53.114;18.040;2023-05-29T06:26:11;4.30;;;1.88;;
19167;SDS011;9716;53.114;18.040;2023-05-29T06:28:40;5.82;;;2.20;;
19167;SDS011;9716;53.114;18.040;2023-05-29T06:31:09;3.05;;;1.70;;
19167;SDS011;9716;53.114;18.040;2023-05-29T06:33:37;3.95;;;1.70;;
19167;SDS011;9716;53.114;18.040;2023-05-29T06:36:06;8.18;;;2.00;;
19167;SDS011;9716;53.114;18.040;2023-05-29T06:38:36;6.35;;;2.13;;
19167;SDS011;9716;53.114;18.040;2023-05-29T06:41:05;3.47;;;2.00;;
19167;SDS011;9716;53.114;18.040;2023-05-29T06:43:34;9.50;;;2.13;;
19167;SDS011;9716;53.114;18.040;2023-05-29T06:46:02;3.70;;;1.70;;
19167;SDS011;9716;53.114;18.040;2023-05-29T06:48:32;3.42;;;2.10;;
19167;SDS011;9716;53.114;18.040;2023-05-29T06:51:01;5.25;;;1.83;;
19167;SDS011;9716;53.114;18.040;2023-05-29T06:53:36;4.18;;;2.25;;
19167;SDS011;9716;53.114;18.040;2023-05-29T06:56:05;5.13;;;2.13;;
19167;SDS011;9716;53.114;18.040;2023-05-29T06:58:34;2.85;;;1.92;;
19167;SDS011;9716;53.114;18.040;2023-05-29T07:01:02;4.13;;;1.83;;
19167;SDS011;9716;53.114;18.040;2023-05-29T07:03:34;4.95;;;1.85;;
19167;SDS011;9716;53.114;18.040;2023-05-29T07:06:04;5.35;;;2.33;;
19167;SDS011;9716;53.114;18.040;2023-05-29T07:08:34;2.50;;;1.70;;
19167;SDS011;9716;53.114;18.040;2023-05-29T07:11:05;4.03;;;2.03;;
19167;SDS011;9716;53.114;18.040;2023-05-29T07:13:34;4.20;;;1.70;;
19167;SDS011;9716;53.114;18.040;2023-05-29T07:16:02;5.65;;;2.00;;
19167;SDS011;9716;53.114;18.040;2023-05-29T07:18:49;6.80;;;1.90;;
19167;SDS011;9716;53.114;18.040;2023-05-29T07:21:17;4.70;;;1.52;;
19167;SDS011;9716;53.114;18.040;2023-05-29T07:23:47;4.60;;;2.13;;
19167;SDS011;9716;53.114;18.040;2023-05-29T07:26:17;3.47;;;1.90;;
19167;SDS011;9716;53.114;18.040;2023-05-29T07:28:45;3.95;;;1.58;;
19167;SDS011;9716;53.114;18.040;2023-05-29T07:31:14;6.85;;;1.55;;
19167;SDS011;9716;53.114;18.040;2023-05-29T07:33:42;7.10;;;2.15;;
19167;SDS011;9716;53.114;18.040;2023-05-29T07:36:11;4.18;;;2.33;;
19167;SDS011;9716;53.114;18.040;2023-05-29T07:38:40;2.03;;;1.63;;
19167;SDS011;9716;53.114;18.040;2023-05-29T07:41:08;2.88;;;1.63;;
19167;SDS011;9716;53.114;18.040;2023-05-29T07:43:38;8.65;;;2.08;;
19167;SDS011;9716;53.114;18.040;2023-05-29T07:46:07;1.80;;;1.40;;
19167;SDS011;9716;53.114;18.040;2023-05-29T07:48:36;9.20;;;2.00;;
19167;SDS011;9716;53.114;18.040;2023-05-29T07:51:04;10.20;;;2.10;;
19167;SDS011;9716;53.114;18.040;2023-05-29T07:53:36;5.07;;;2.10;;
19167;SDS011;9716;53.114;18.040;2023-05-29T07:56:05;7.97;;;1.70;;
19167;SDS011;9716;53.114;18.040;2023-05-29T07:58:34;4.00;;;2.15;;
19167;SDS011;9716;53.114;18.040;2023-05-29T08:01:04;5.50;;;2.05;;
19167;SDS011;9716;53.114;18.040;2023-05-29T08:03:33;2.97;;;2.28;;
19167;SDS011;9716;53.114;18.040;2023-05-29T08:06:01;3.50;;;2.33;;
19167;SDS011;9716;53.114;18.040;2023-05-29T08:08:30;9.90;;;2.15;;
19167;SDS011;9716;53.114;18.040;2023-05-29T08:10:59;7.10;;;1.77;;
19167;SDS011;9716;53.114;18.040;2023-05-29T08:13:29;4.10;;;1.70;;
19167;SDS011;9716;53.114;18.040;2023-05-29T08:15:58;3.28;;;1.92;;
19167;SDS011;9716;53.114;18.040;2023-05-29T08:18:30;2.95;;;1.40;;
19167;SDS011;9716;53.114;18.040;2023-05-29T08:20:59;5.32;;;1.98;;
19167;SDS011;9716;53.114;18.040;2023-05-29T08:23:28;1.95;;;1.52;;
19167;SDS011;9716;53.114;18.040;2023-05-29T08:26:01;1.50;;;1.13;;
19167;SDS011;9716;53.114;18.040;2023-05-29T08:28:30;2.53;;;1.42;;
19167;SDS011;9716;53.114;18.040;2023-05-29T08:30:59;3.55;;;2.10;;
19167;SDS011;9716;53.114;18.040;2023-05-29T08:33:29;2.28;;;1.27;;
19167;SDS011;9716;53.114;18.040;2023-05-29T08:35:58;3.97;;;1.60;;
19167;SDS011;9716;53.114;18.040;2023-05-29T08:38:28;5.40;;;1.58;;
19167;SDS011;9716;53.114;18.040;2023-05-29T08:40:56;2.50;;;1.50;;
19167;SDS011;9716;53.114;18.040;2023-05-29T08:43:29;8.68;;;2.08;;
19167;SDS011;9716;53.114;18.040;2023-05-29T08:45:59;3.00;;;1.80;;
19167;SDS011;9716;53.114;18.040;2023-05-29T08:48:30;3.55;;;1.63;;
19167;SDS011;9716;53.114;18.040;2023-05-29T08:50:59;3.50;;;1.50;;
19167;SDS011;9716;53.114;18.040;2023-05-29T08:53:31;3.08;;;1.50;;
19167;SDS011;9716;53.114;18.040;2023-05-29T08:55:59;2.70;;;1.25;;
19167;SDS011;9716;53.114;18.040;2023-05-29T08:58:29;3.30;;;1.40;;
19167;SDS011;9716;53.114;18.040;2023-05-29T09:00:58;1.48;;;1.35;;
19167;SDS011;9716;53.114;18.040;2023-05-29T09:03:27;4.80;;;1.67;;
19167;SDS011;9716;53.114;18.040;2023-05-29T09:05:58;3.97;;;1.75;;
19167;SDS011;9716;53.114;18.040;2023-05-29T09:08:27;3.72;;;1.38;;
19167;SDS011;9716;53.114;18.040;2023-05-29T09:10:56;2.65;;;1.50;;
19167;SDS011;9716;53.114;18.040;2023-05-29T09:13:25;2.35;;;1.27;;
19167;SDS011;9716;53.114;18.040;2023-05-29T09:15:57;4.43;;;1.70;;
19167;SDS011;9716;53.114;18.040;2023-05-29T09:18:29;5.40;;;1.55;;
19167;SDS011;9716;53.114;18.040;2023-05-29T09:20:59;2.35;;;1.50;;
19167;SDS011;9716;53.114;18.040;2023-05-29T09:23:29;2.13;;;1.30;;
19167;SDS011;9716;53.114;18.040;2023-05-29T09:25:57;2.33;;;1.38;;
19167;SDS011;9716;53.114;18.040;2023-05-29T09:28:26;2.75;;;1.50;;
19167;SDS011;9716;53.114;18.040;2023-05-29T09:30:59;3.05;;;1.35;;
19167;SDS011;9716;53.114;18.040;2023-05-29T09:33:29;4.00;;;1.42;;
19167;SDS011;9716;53.114;18.040;2023-05-29T09:35:58;6.60;;;1.63;;
19167;SDS011;9716;53.114;18.040;2023-05-29T09:38:27;8.65;;;1.80;;
19167;SDS011;9716;53.114;18.040;2023-05-29T09:41:20;5.47;;;1.60;;
19167;SDS011;9716;53.114;18.040;2023-05-29T09:43:50;5.43;;;1.55;;
19167;SDS011;9716;53.114;18.040;2023-05-29T09:46:22;3.05;;;1.40;;
19167;SDS011;9716;53.114;18.040;2023-05-29T09:48:53;1.95;;;1.23;;
19167;SDS011;9716;53.114;18.040;2023-05-29T09:51:23;3.10;;;1.30;;
19167;SDS011;9716;53.114;18.040;2023-05-29T09:53:52;2.53;;;1.50;;
19167;SDS011;9716;53.114;18.040;2023-05-29T09:56:23;2.40;;;1.35;;
19167;SDS011;9716;53.114;18.040;2023-05-29T09:58:53;3.67;;;2.08;;
19167;SDS011;9716;53.114;18.040;2023-05-29T10:01:24;3.60;;;1.80;;
19167;SDS011;9716;53.114;18.040;2023-05-29T10:03:55;2.95;;;1.67;;
19167;SDS011;9716;53.114;18.040;2023-05-29T10:06:24;3.28;;;1.75;;
19167;SDS011;9716;53.114;18.040;2023-05-29T10:08:53;3.83;;;1.50;;
19167;SDS011;9716;53.114;18.040;2023-05-29T10:11:22;3.97;;;1.40;;
19167;SDS011;9716;53.114;18.040;2023-05-29T10:13:54;3.38;;;1.73;;
19167;SDS011;9716;53.114;18.040;2023-05-29T10:16:25;26.13;;;1.50;;
19167;SDS011;9716;53.114;18.040;2023-05-29T10:18:57;2.47;;;1.73;;
19167;SDS011;9716;53.114;18.040;2023-05-29T10:21:30;2.28;;;1.45;;
19167;SDS011;9716;53.114;18.040;2023-05-29T10:24:00;2.78;;;1.10;;
19167;SDS011;9716;53.114;18.040;2023-05-29T10:26:31;7.50;;;1.58;;
19167;SDS011;9716;53.114;18.040;2023-05-29T10:29:03;4.15;;;1.38;;
19167;SDS011;9716;53.114;18.040;2023-05-29T10:31:39;6.97;;;1.50;;
19167;SDS011;9716;53.114;18.040;2023-05-29T10:34:30;4.30;;;1.40;;
19167;SDS011;9716;53.114;18.040;2023-05-29T10:37:06;2.92;;;1.35;;
19167;SDS011;9716;53.114;18.040;2023-05-29T10:39:42;1.55;;;1.00;;
19167;SDS011;9716;53.114;18.040;2023-05-29T10:51:10;1.85;;;1.30;;
19167;SDS011;9716;53.114;18.040;2023-05-29T10:53:53;2.53;;;1.00;;
19167;SDS011;9716;53.114;18.040;2023-05-29T10:56:22;4.32;;;1.17;;
19167;SDS011;9716;53.114;18.040;2023-05-29T10:58:54;2.10;;;1.20;;
19167;SDS011;9716;53.114;18.040;2023-05-29T11:01:24;2.05;;;1.15;;
19167;SDS011;9716;53.114;18.040;2023-05-29T11:06:56;4.47;;;1.10;;
19167;SDS011;9716;53.114;18.040;2023-05-29T11:09:28;2.42;;;1.38;;
19167;SDS011;9716;53.114;18.040;2023-05-29T11:12:11;2.55;;;1.40;;
19167;SDS011;9716;53.114;18.040;2023-05-29T11:14:45;1.67;;;1.15;;
19167;SDS011;9716;53.114;18.040;2023-05-29T11:20:00;2.00;;;1.25;;
19167;SDS011;9716;53.114;18.040;2023-05-29T11:25:35;4.70;;;1.45;;
19167;SDS011;9716;53.114;18.040;2023-05-29T11:28:05;3.40;;;1.02;;
19167;SDS011;9716;53.114;18.040;2023-05-29T11:30:44;1.50;;;0.93;;
19167;SDS011;9716;53.114;18.040;2023-05-29T11:33:22;2.63;;;1.35;;
19167;SDS011;9716;53.114;18.040;2023-05-29T11:35:56;2.22;;;1.17;;
19167;SDS011;9716;53.114;18.040;2023-05-29T11:38:26;6.45;;;1.30;;
19167;SDS011;9716;53.114;18.040;2023-05-29T11:40:56;2.72;;;1.50;;
19167;SDS011;9716;53.114;18.040;2023-05-29T11:43:25;4.93;;;1.42;;
19167;SDS011;9716;53.114;18.040;2023-05-29T11:45:56;2.67;;;1.38;;
19167;SDS011;9716;53.114;18.040;2023-05-29T11:48:24;4.47;;;1.02;;
19167;SDS011;9716;53.114;18.040;2023-05-29T11:50:54;4.65;;;1.65;;
19167;SDS011;9716;53.114;18.040;2023-05-29T11:53:22;3.00;;;1.15;;
19167;SDS011;9716;53.114;18.040;2023-05-29T11:56:06;2.05;;;1.45;;
19167;SDS011;9716;53.114;18.040;2023-05-29T11:58:36;1.73;;;1.10;;
19167;SDS011;9716;53.114;18.040;2023-05-29T12:01:06;9.50;;;1.63;;
19167;SDS011;9716;53.114;18.040;2023-05-29T12:03:38;2.28;;;1.33;;
19167;SDS011;9716;53.114;18.040;2023-05-29T12:06:08;2.90;;;1.48;;
19167;SDS011;9716;53.114;18.040;2023-05-29T12:08:37;4.07;;;1.85;;
19167;SDS011;9716;53.114;18.040;2023-05-29T12:11:08;3.05;;;1.23;;
19167;SDS011;9716;53.114;18.040;2023-05-29T12:13:36;4.68;;;1.25;;
19167;SDS011;9716;53.114;18.040;2023-05-29T12:16:05;2.40;;;1.35;;
19167;SDS011;9716;53.114;18.040;2023-05-29T12:18:34;1.48;;;1.02;;
19167;SDS011;9716;53.114;18.040;2023-05-29T12:21:03;2.40;;;1.27;;
19167;SDS011;9716;53.114;18.040;2023-05-29T12:23:32;4.05;;;1.50;;
19167;SDS011;9716;53.114;18.040;2023-05-29T12:26:02;3.78;;;1.20;;
19167;SDS011;9716;53.114;18.040;2023-05-29T12:28:34;4.10;;;1.23;;
19167;SDS011;9716;53.114;18.040;2023-05-29T12:31:02;1.90;;;1.05;;
19167;SDS011;9716;53.114;18.040;2023-05-29T12:33:31;1.27;;;0.85;;
19167;SDS011;9716;53.114;18.040;2023-05-29T12:36:01;1.33;;;1.10;;
19167;SDS011;9716;53.114;18.040;2023-05-29T12:38:31;4.47;;;1.30;;
19167;SDS011;9716;53.114;18.040;2023-05-29T12:41:00;3.47;;;1.25;;
19167;SDS011;9716;53.114;18.040;2023-05-29T12:43:29;1.63;;;1.27;;
19167;SDS011;9716;53.114;18.040;2023-05-29T12:45:59;1.13;;;1.02;;
19167;SDS011;9716;53.114;18.040;2023-05-29T12:48:27;1.33;;;1.02;;
19167;SDS011;9716;53.114;18.040;2023-05-29T12:50:58;2.45;;;1.50;;
19167;SDS011;9716;53.114;18.040;2023-05-29T12:53:34;2.90;;;1.38;;
19167;SDS011;9716;53.114;18.040;2023-05-29T12:56:03;3.05;;;1.33;;
19167;SDS011;9716;53.114;18.040;2023-05-29T12:58:32;5.38;;;1.23;;
19167;SDS011;9716;53.114;18.040;2023-05-29T13:01:02;15.25;;;1.98;;
19167;SDS011;9716;53.114;18.040;2023-05-29T13:03:30;2.22;;;1.13;;
19167;SDS011;9716;53.114;18.040;2023-05-29T13:06:00;4.22;;;1.40;;
19167;SDS011;9716;53.114;18.040;2023-05-29T13:08:29;2.47;;;1.40;;
19167;SDS011;9716;53.114;18.040;2023-05-29T13:10:57;4.60;;;1.50;;
19167;SDS011;9716;53.114;18.040;2023-05-29T13:13:26;4.63;;;1.15;;
19167;SDS011;9716;53.114;18.040;2023-05-29T13:15:54;3.83;;;1.13;;
19167;SDS011;9716;53.114;18.040;2023-05-29T13:18:25;1.63;;;1.23;;
19167;SDS011;9716;53.114;18.040;2023-05-29T13:20:53;2.53;;;1.02;;
19167;SDS011;9716;53.114;18.040;2023-05-29T13:23:22;1.00;;;0.90;;
19167;SDS011;9716;53.114;18.040;2023-05-29T13:25:54;6.07;;;1.48;;
19167;SDS011;9716;53.114;18.040;2023-05-29T13:28:23;1.42;;;1.10;;
19167;SDS011;9716;53.114;18.040;2023-05-29T13:30:52;4.95;;;1.55;;
19167;SDS011;9716;53.114;18.040;2023-05-29T13:33:21;1.70;;;1.00;;
19167;SDS011;9716;53.114;18.040;2023-05-29T13:35:51;7.53;;;1.27;;
19167;SDS011;9716;53.114;18.040;2023-05-29T13:38:23;2.15;;;1.17;;
19167;SDS011;9716;53.114;18.040;2023-05-29T13:40:52;5.25;;;1.55;;
19167;SDS011;9716;53.114;18.040;2023-05-29T13:43:20;2.35;;;1.42;;
19167;SDS011;9716;53.114;18.040;2023-05-29T13:46:01;5.40;;;1.13;;
19167;SDS011;9716;53.114;18.040;2023-05-29T13:48:30;2.33;;;1.10;;
19167;SDS011;9716;53.114;18.040;2023-05-29T13:51:02;2.45;;;1.00;;
19167;SDS011;9716;53.114;18.040;2023-05-29T13:53:30;3.63;;;1.27;;
19167;SDS011;9716;53.114;18.040;2023-05-29T13:55:59;2.92;;;1.10;;
19167;SDS011;9716;53.114;18.040;2023-05-29T13:58:30;4.68;;;1.33;;
19167;SDS011;9716;53.114;18.040;2023-05-29T14:01:00;4.05;;;1.80;;
19167;SDS011;9716;53.114;18.040;2023-05-29T14:03:28;1.70;;;1.02;;
19167;SDS011;9716;53.114;18.040;2023-05-29T14:05:58;2.08;;;1.00;;
19167;SDS011;9716;53.114;18.040;2023-05-29T14:08:30;4.00;;;1.42;;
19167;SDS011;9716;53.114;18.040;2023-05-29T14:10:59;1.77;;;1.02;;
19167;SDS011;9716;53.114;18.040;2023-05-29T14:13:27;4.45;;;1.48;;
19167;SDS011;9716;53.114;18.040;2023-05-29T14:15:57;1.58;;;1.27;;
19167;SDS011;9716;53.114;18.040;2023-05-29T14:18:25;1.67;;;1.15;;
19167;SDS011;9716;53.114;18.040;2023-05-29T14:20:54;2.40;;;1.02;;
19167;SDS011;9716;53.114;18.040;2023-05-29T14:23:23;1.08;;;0.80;;
19167;SDS011;9716;53.114;18.040;2023-05-29T14:25:53;2.83;;;1.20;;
19167;SDS011;9716;53.114;18.040;2023-05-29T14:28:22;3.75;;;0.80;;
19167;SDS011;9716;53.114;18.040;2023-05-29T14:30:50;5.10;;;1.38;;
19167;SDS011;9716;53.114;18.040;2023-05-29T14:33:21;2.10;;;1.30;;
19167;SDS011;9716;53.114;18.040;2023-05-29T14:35:51;0.75;;;0.57;;
19167;SDS011;9716;53.114;18.040;2023-05-29T14:38:20;3.20;;;1.40;;
19167;SDS011;9716;53.114;18.040;2023-05-29T14:40:49;1.85;;;0.90;;
19167;SDS011;9716;53.114;18.040;2023-05-29T14:43:35;2.30;;;0.98;;
19167;SDS011;9716;53.114;18.040;2023-05-29T14:46:04;4.80;;;1.40;;
19167;SDS011;9716;53.114;18.040;2023-05-29T14:48:33;2.97;;;1.27;;
19167;SDS011;9716;53.114;18.040;2023-05-29T14:51:01;3.70;;;1.38;;
19167;SDS011;9716;53.114;18.040;2023-05-29T14:53:30;2.58;;;1.42;;
19167;SDS011;9716;53.114;18.040;2023-05-29T14:55:59;3.08;;;1.27;;
19167;SDS011;9716;53.114;18.040;2023-05-29T14:58:27;6.30;;;1.25;;
19167;SDS011;9716;53.114;18.040;2023-05-29T15:00:58;3.67;;;1.30;;
19167;SDS011;9716;53.114;18.040;2023-05-29T15:03:26;1.67;;;1.45;;
19167;SDS011;9716;53.114;18.040;2023-05-29T15:05:55;2.90;;;1.48;;
19167;SDS011;9716;53.114;18.040;2023-05-29T15:08:24;2.97;;;1.40;;
19167;SDS011;9716;53.114;18.040;2023-05-29T15:10:55;3.92;;;1.25;;
19167;SDS011;9716;53.114;18.040;2023-05-29T15:13:23;2.85;;;1.33;;
19167;SDS011;9716;53.114;18.040;2023-05-29T15:15:52;1.73;;;1.02;;
19167;SDS011;9716;53.114;18.040;2023-05-29T15:18:22;5.50;;;1.67;;
19167;SDS011;9716;53.114;18.040;2023-05-29T15:20:51;1.90;;;0.80;;
19167;SDS011;9716;53.114;18.040;2023-05-29T15:23:21;1.77;;;1.27;;